Flight Track Log - Related Links

Times and Time Zones

All times are in EDT time to prevent confusion due to time zone crossing. See the SKW5506 flight status page for this flight to view local times or setup timezone preferences in your user account.

Time Position Orientation Groundspeed Altitude Reporting Facility
EDT Latitude Longitude Course Direction KTS MPH feet Rate Location/Type
Mon 10:40:34 PM 41.9833 -87.8333 90° East 173 199 2,500  Level Chicago TRACON
Mon 10:42:00 PM 41.9608 -87.5004 95° East  Level FlightAware Approximate
Mon 10:42:15 PM 41.9872 -87.7025 88° East 236 272 6,100  Level Chicago Center
Mon 10:42:34 PM 41.9833 -87.6500 96° East 270 311 7,500 3,049 Climbing Chicago TRACON
Mon 10:43:00 PM 41.9513 -87.3677 95° East  Level FlightAware Approximate
Mon 10:44:00 PM 41.9412 -87.2351 96° East  Level FlightAware Approximate
Mon 10:44:17 PM 41.9714 -87.4772 95° East 279 321 12,300  Level Chicago Center
Mon 10:45:00 PM 41.9333 -87.1024 90° East  Level FlightAware Approximate
Mon 10:45:19 PM 41.9656 -87.3644 94° East 298 343 14,000  Level Chicago Center
Mon 10:46:00 PM 41.9333 -86.9691 90° East  Level FlightAware Approximate
Mon 10:46:20 PM 41.9528 -87.2347 98° East 334 384 15,500  Level Chicago Center
Mon 10:47:21 PM 41.9372 -87.0947 98° East 368 423 16,300 787 Climbing Chicago Center
Mon 10:48:22 PM 41.9206 -86.9511 99° East 385 443 17,100 738 Climbing Chicago Center
Mon 10:49:23 PM 41.8961 -86.8069 103° East 403 464 17,800 1,131 Climbing Chicago Center
Mon 10:50:24 PM 41.8281 -86.6803 126° Southeast 421 484 19,400 1,672 Climbing Chicago Center
Mon 10:51:25 PM 41.7578 -86.5564 127° Southeast 420 483 21,200 1,721 Climbing Chicago Center
Mon 10:52:26 PM 41.6883 -86.4306 126° Southeast 422 486 22,900 885 Climbing Chicago Center
Mon 10:53:27 PM 41.6161 -86.3028 127° Southeast 428 493 23,000 49 Climbing Chicago Center
Mon 10:54:28 PM 41.5150 -86.1575 133° Southeast 451 519 23,000  Level Chicago Center
Mon 10:55:30 PM 41.4233 -86.0481 138° Southeast 449 517 23,000  Level Chicago Center
Mon 10:56:31 PM 41.3336 -85.9394 138° Southeast 443 510 23,000 -310 Level Chicago Center
Mon 10:58:24 PM 41.1614 -85.7311 138° Southeast 438 504 22,100 -655 Descending Indianapolis Center
Mon 10:59:25 PM 41.0717 -85.6236 138° Southeast 436 502 21,100 -976 Descending Indianapolis Center
Mon 11:00:27 PM 40.9833 -85.5189 138° Southeast 429 494 20,100 -916 Descending Indianapolis Center
Mon 11:01:36 PM 40.8900 -85.4117 139° Southeast 426 490 19,100 -923 Descending Chicago Center
Mon 11:02:37 PM 40.8036 -85.3069 137° Southeast 425 489 18,100 -1,033 Descending Chicago Center
Mon 11:03:38 PM 40.7000 -85.1836 138° Southeast 423 487 17,000 -1,033 Descending Chicago Center
Mon 11:04:39 PM 40.6217 -85.0931 139° Southeast 403 464 16,000 -939 Descending Chicago Center
Mon 11:05:33 PM 40.5533 -85.0150 139° Southeast 402 463 15,200 -1,187 Descending Indianapolis Center
Mon 11:06:10 PM 40.4914 -84.9419 138° Southeast 394 453 14,200 -1,574 Descending Indianapolis Center
Mon 11:06:34 PM 40.4564 -84.9031 140° Southeast 391 450 13,600 -1,200 Descending Indianapolis Center
Mon 11:07:05 PM 40.4167 -84.8569 139° Southeast 382 440 13,100 -984 Descending Indianapolis Center
Mon 11:07:35 PM 40.3783 -84.8119 138° Southeast 380 437 12,600 -1,000 Descending Indianapolis Center
Mon 11:08:11 PM 40.3344 -84.7631 140° Southeast 369 425 12,000 -1,180 Descending Indianapolis Center
Mon 11:08:36 PM 40.3006 -84.7231 138° Southeast 371 427 11,400 -1,180 Descending Indianapolis Center
Mon 11:09:12 PM 40.2542 -84.6694 139° Southeast 352 405 10,800 -968 Descending Indianapolis Center
Mon 11:09:38 PM 40.2306 -84.6431 140° Southeast 346 398 10,400 -1,111 Descending Indianapolis Center
Mon 11:10:06 PM 40.1997 -84.6156 146° Southeast 286 329 9,800 -1,475 Descending Indianapolis Center
Mon 11:10:39 PM 40.1639 -84.5881 150° Southeast 288 331 8,900 -1,636 Descending Indianapolis Center
Mon 11:11:01 PM 40.1367 -84.5683 151° Southeast 273 314 8,300 -1,770 Descending Indianapolis Center
Mon 11:11:40 PM 40.0950 -84.5369 150° Southeast 282 325 7,100 -1,855 Descending Indianapolis Center
Mon 11:11:56 PM 40.0753 -84.5217 149° Southeast 275 316 6,600 -1,770 Descending Indianapolis Center
Mon 11:12:41 PM 40.0319 -84.4822 145° Southeast 276 318 5,300 -1,909 Descending Indianapolis Center
Mon 11:13:02 PM 40.0097 -84.4528 135° Southeast 265 305 4,500 -1,742 Descending Indianapolis Center
Mon 11:13:43 PM 39.9772 -84.4178 140° Southeast 270 311 3,500 -1,254 Descending Indianapolis Center
Mon 11:14:09 PM 39.9539 -84.3906 138° Southeast 236 272 3,100 -492 Descending Indianapolis Center
Mon 11:14:44 PM 39.9314 -84.3628 137° Southeast 246 283 3,000 -109 Descending Indianapolis Center
Mon 11:15:04 PM 39.9172 -84.3503 146° Southeast 172 198 3,000  Level Indianapolis Center

Login

Don't have an account? Register now (free) for customized features, flight alerts, and more!